Time,TemperatureF,DewpointF,PressureIn,WindDirection,WindDirectionDegrees,WindSpeedMPH,WindSpeedGustMPH,Humidity,HourlyPrecipIn,Conditions,Clouds,dailyrainin,SoftwareType,DateUTC
2013-01-21 00:00:00,25.0,9.4,29.93,NW,321,7.0,19.0,51,0.00,,,0.00,VWS V14.01,2013-01-21 05:00:00,
2013-01-21 00:03:00,24.9,9.4,29.93,NW,320,15.0,19.0,51,0.00,,,0.00,VWS V14.01,2013-01-21 05:03:00,
2013-01-21 00:08:00,24.9,9.4,29.93,West,276,4.0,18.0,51,0.00,,,0.00,VWS V14.01,2013-01-21 05:08:00,
2013-01-21 00:13:00,24.8,9.7,29.94,WSW,246,9.0,18.0,52,0.00,,,0.00,VWS V14.01,2013-01-21 05:13:00,
2013-01-21 00:18:00,24.7,10.0,29.93,WNW,284,3.0,18.0,53,0.00,,,0.00,VWS V14.01,2013-01-21 05:18:00,
2013-01-21 00:23:00,24.6,9.5,29.93,WSW,254,7.0,18.0,52,0.00,,,0.00,VWS V14.01,2013-01-21 05:23:00,
2013-01-21 00:28:00,24.5,9.8,29.93,SW,235,6.0,18.0,53,0.00,,,0.00,VWS V14.01,2013-01-21 05:28:00,
2013-01-21 00:33:00,24.4,10.1,29.93,WNW,297,11.0,18.0,54,0.00,,,0.00,VWS V14.01,2013-01-21 05:33:00,
2013-01-21 00:38:00,24.3,10.5,29.94,WNW,301,9.0,13.0,55,0.00,,,0.00,VWS V14.01,2013-01-21 05:38:00,
2013-01-21 00:43:00,24.2,10.8,29.94,WSW,257,4.0,13.0,56,0.00,,,0.00,VWS V14.01,2013-01-21 05:43:00,
2013-01-21 00:48:00,24.1,11.1,29.95,West,281,3.0,13.0,57,0.00,,,0.00,VWS V14.01,2013-01-21 05:48:00,
2013-01-21 00:53:00,23.9,12.4,29.95,WNW,292,6.0,15.0,61,0.00,,,0.00,VWS V14.01,2013-01-21 05:53:00,
2013-01-21 00:58:00,23.6,13.2,29.95,West,265,11.0,15.0,64,0.00,,,0.00,VWS V14.01,2013-01-21 05:58:00,
2013-01-21 01:03:00,23.3,12.9,29.95,West,276,9.0,15.0,64,0.00,,,0.00,VWS V14.01,2013-01-21 06:03:00,
2013-01-21 01:08:00,23.0,13.0,29.95,WNW,298,9.0,16.0,65,0.00,,,0.00,VWS V14.01,2013-01-21 06:08:00,
2013-01-21 01:13:00,22.8,12.8,29.96,NNW,331,8.0,16.0,65,0.00,,,0.00,VWS V14.01,2013-01-21 06:13:00,
2013-01-21 01:18:00,22.6,12.6,29.96,West,274,3.0,16.0,65,0.00,,,0.00,VWS V14.01,2013-01-21 06:18:00,
2013-01-21 01:23:00,22.5,12.2,29.96,WNW,290,4.0,18.0,64,0.00,,,0.00,VWS V14.01,2013-01-21 06:23:00,
2013-01-21 01:28:00,22.4,11.7,29.97,NW,317,2.0,18.0,63,0.00,,,0.00,VWS V14.01,2013-01-21 06:28:00,
2013-01-21 01:33:00,22.2,11.5,29.97,WNW,287,4.0,18.0,63,0.00,,,0.00,VWS V14.01,2013-01-21 06:33:00,
2013-01-21 01:38:00,22.2,10.8,29.97,WNW,294,8.0,14.0,61,0.00,,,0.00,VWS V14.01,2013-01-21 06:38:00,
2013-01-21 01:43:00,22.1,10.7,29.98,NNW,327,3.0,15.0,61,0.00,,,0.00,VWS V14.01,2013-01-21 06:43:00,
2013-01-21 01:48:00,22.0,10.2,29.98,WNW,286,4.0,15.0,60,0.00,,,0.00,VWS V14.01,2013-01-21 06:48:00,
2013-01-21 01:53:00,21.9,9.8,29.98,West,271,10.0,15.0,59,0.00,,,0.00,VWS V14.01,2013-01-21 06:53:00,
2013-01-21 01:58:00,21.8,9.3,29.99,WNW,287,3.0,15.0,58,0.00,,,0.00,VWS V14.01,2013-01-21 06:58:00,
2013-01-21 02:03:00,21.7,9.6,29.99,West,261,6.0,15.0,59,0.00,,,0.00,VWS V14.01,2013-01-21 07:03:00,
2013-01-21 02:08:00,21.6,9.1,29.99,West,268,3.0,16.0,58,0.00,,,0.00,VWS V14.01,2013-01-21 07:08:00,
2013-01-21 02:13:00,21.5,9.0,29.99,North,355,3.0,16.0,58,0.00,,,0.00,VWS V14.01,2013-01-21 07:13:00,
2013-01-21 02:18:00,21.4,8.6,30.00,West,269,6.0,16.0,57,0.00,,,0.00,VWS V14.01,2013-01-21 07:18:00,
2013-01-21 02:23:00,21.4,8.1,30.00,WNW,297,5.0,16.0,56,0.00,,,0.00,VWS V14.01,2013-01-21 07:23:00,
2013-01-21 02:28:00,21.3,7.7,30.00,West,281,16.0,16.0,55,0.00,,,0.00,VWS V14.01,2013-01-21 07:28:00,
2013-01-21 02:33:00,21.3,7.7,30.00,WNW,292,9.0,18.0,55,0.00,,,0.00,VWS V14.01,2013-01-21 07:33:00,
2013-01-21 02:38:00,21.2,7.6,30.00,NW,311,6.0,11.0,55,0.00,,,0.00,VWS V14.01,2013-01-21 07:38:00,
2013-01-21 02:43:00,21.2,7.2,30.00,West,281,7.0,11.0,54,0.00,,,0.00,VWS V14.01,2013-01-21 07:43:00,
2013-01-21 02:48:00,21.1,7.1,30.00,WNW,288,7.0,15.0,54,0.00,,,0.00,VWS V14.01,2013-01-21 07:48:00,
2013-01-21 02:53:00,21.0,7.4,30.00,West,277,7.0,15.0,55,0.00,,,0.00,VWS V14.01,2013-01-21 07:53:00,
2013-01-21 02:58:00,20.9,6.9,30.01,West,274,3.0,15.0,54,0.00,,,0.00,VWS V14.01,2013-01-21 07:58:00,
2013-01-21 03:03:00,20.9,7.3,30.01,WNW,296,4.0,15.0,55,0.00,,,0.00,VWS V14.01,2013-01-21 08:03:00,
2013-01-21 03:08:00,20.8,7.2,30.01,West,265,2.0,10.0,55,0.00,,,0.00,VWS V14.01,2013-01-21 08:08:00,
2013-01-21 03:13:00,20.7,7.5,30.01,WNW,294,6.0,13.0,56,0.00,,,0.00,VWS V14.01,2013-01-21 08:13:00,
2013-01-21 03:18:00,20.6,8.2,30.01,North,355,4.0,13.0,58,0.00,,,0.00,VWS V14.01,2013-01-21 08:18:00,
2013-01-21 03:23:00,20.4,8.4,30.01,North,360,6.0,13.0,59,0.00,,,0.00,VWS V14.01,2013-01-21 08:23:00,
2013-01-21 03:28:00,20.3,8.3,30.01,West,261,4.0,13.0,59,0.00,,,0.00,VWS V14.01,2013-01-21 08:28:00,
2013-01-21 03:33:00,20.1,8.1,30.01,WNW,301,7.0,13.0,59,0.00,,,0.00,VWS V14.01,2013-01-21 08:33:00,
2013-01-21 03:38:00,20.0,8.0,30.02,WSW,246,7.0,7.0,59,0.00,,,0.00,VWS V14.01,2013-01-21 08:38:00,
2013-01-21 03:43:00,19.9,7.1,30.01,WNW,300,4.0,12.0,57,0.00,,,0.00,VWS V14.01,2013-01-21 08:43:00,
2013-01-21 03:48:00,19.8,6.7,30.02,WNW,283,7.0,13.0,56,0.00,,,0.00,VWS V14.01,2013-01-21 08:48:00,
2013-01-21 03:53:00,19.7,6.6,30.02,West,272,4.0,13.0,56,0.00,,,0.00,VWS V14.01,2013-01-21 08:53:00,
2013-01-21 03:58:00,19.6,6.1,30.02,West,259,2.0,13.0,55,0.00,,,0.00,VWS V14.01,2013-01-21 08:58:00,
2013-01-21 04:03:00,19.6,6.1,30.02,NW,319,4.0,13.0,55,0.00,,,0.00,VWS V14.01,2013-01-21 09:03:00,
2013-01-21 04:08:00,19.5,6.0,30.02,West,270,7.0,7.0,55,0.00,,,0.00,VWS V14.01,2013-01-21 09:08:00,
2013-01-21 04:13:00,19.4,5.5,30.02,WSW,238,9.0,10.0,54,0.00,,,0.00,VWS V14.01,2013-01-21 09:13:00,
2013-01-21 04:18:00,19.4,5.1,30.02,WSW,258,5.0,11.0,53,0.00,,,0.00,VWS V14.01,2013-01-21 09:18:00,
2013-01-21 04:23:00,19.4,5.1,30.03,West,260,3.0,11.0,53,0.00,,,0.00,VWS V14.01,2013-01-21 09:23:00,
2013-01-21 04:28:00,19.3,5.4,30.03,WNW,293,1.0,11.0,54,0.00,,,0.00,VWS V14.01,2013-01-21 09:28:00,
2013-01-21 04:33:00,19.3,5.4,30.03,West,271,3.0,11.0,54,0.00,,,0.00,VWS V14.01,2013-01-21 09:33:00,
2013-01-21 04:38:00,19.2,5.3,30.03,West,269,4.0,5.0,54,0.00,,,0.00,VWS V14.01,2013-01-21 09:38:00,
2013-01-21 04:43:00,19.1,5.2,30.03,West,269,2.0,6.0,54,0.00,,,0.00,VWS V14.01,2013-01-21 09:43:00,
2013-01-21 04:48:00,19.0,5.1,30.03,West,263,3.0,9.0,54,0.00,,,0.00,VWS V14.01,2013-01-21 09:48:00,
2013-01-21 04:53:00,18.9,5.0,30.03,West,259,2.0,9.0,54,0.00,,,0.00,VWS V14.01,2013-01-21 09:53:00,
2013-01-21 04:58:00,18.9,5.0,30.04,WNW,283,3.0,9.0,54,0.00,,,0.00,VWS V14.01,2013-01-21 09:58:00,
2013-01-21 05:03:00,18.8,5.3,30.03,WNW,298,3.0,9.0,55,0.00,,,0.00,VWS V14.01,2013-01-21 10:03:00,
2013-01-21 05:08:00,18.8,5.3,30.04,WSW,250,5.0,5.0,55,0.00,,,0.00,VWS V14.01,2013-01-21 10:08:00,
2013-01-21 05:13:00,18.7,5.2,30.04,West,275,3.0,7.0,55,0.00,,,0.00,VWS V14.01,2013-01-21 10:13:00,
2013-01-21 05:18:00,18.7,5.6,30.04,West,281,3.0,7.0,56,0.00,,,0.00,VWS V14.01,2013-01-21 10:18:00,
2013-01-21 05:23:00,18.6,5.5,30.04,WSW,254,3.0,7.0,56,0.00,,,0.00,VWS V14.01,2013-01-21 10:23:00,
2013-01-21 05:28:00,18.5,5.4,30.04,West,266,2.0,7.0,56,0.00,,,0.00,VWS V14.01,2013-01-21 10:28:00,
2013-01-21 05:33:00,18.5,5.4,30.05,West,273,0.0,7.0,56,0.00,,,0.00,VWS V14.01,2013-01-21 10:33:00,
2013-01-21 05:38:00,18.4,5.3,30.05,West,275,3.0,6.0,56,0.00,,,0.00,VWS V14.01,2013-01-21 10:38:00,
2013-01-21 05:43:00,18.4,6.1,30.05,West,261,0.0,6.0,58,0.00,,,0.00,VWS V14.01,2013-01-21 10:43:00,
2013-01-21 05:48:00,18.3,6.0,30.05,West,261,0.0,6.0,58,0.00,,,0.00,VWS V14.01,2013-01-21 10:48:00,
2013-01-21 05:53:00,18.2,5.9,30.05,West,261,0.0,6.0,58,0.00,,,0.00,VWS V14.01,2013-01-21 10:53:00,
2013-01-21 05:58:00,18.2,6.3,30.05,West,261,1.0,6.0,59,0.00,,,0.00,VWS V14.01,2013-01-21 10:58:00,
2013-01-21 06:03:00,18.1,6.6,30.05,West,261,1.0,6.0,60,0.00,,,0.00,VWS V14.01,2013-01-21 11:03:00,
2013-01-21 06:08:00,17.9,6.4,30.06,SW,234,2.0,6.0,60,0.00,,,0.00,VWS V14.01,2013-01-21 11:08:00,
2013-01-21 06:13:00,17.8,5.9,30.06,WNW,292,7.0,8.0,59,0.00,,,0.00,VWS V14.01,2013-01-21 11:13:00,
2013-01-21 06:18:00,17.7,5.8,30.06,SW,233,7.0,10.0,59,0.00,,,0.00,VWS V14.01,2013-01-21 11:18:00,
2013-01-21 06:23:00,17.7,5.8,30.06,WNW,298,4.0,10.0,59,0.00,,,0.00,VWS V14.01,2013-01-21 11:23:00,
2013-01-21 06:28:00,17.6,5.3,30.06,WSW,250,3.0,10.0,58,0.00,,,0.00,VWS V14.01,2013-01-21 11:28:00,
2013-01-21 06:33:00,17.7,5.4,30.05,WSW,258,7.0,10.0,58,0.00,,,0.00,VWS V14.01,2013-01-21 11:33:00,
2013-01-21 06:38:00,17.7,5.1,30.06,WNW,290,0.0,7.0,57,0.00,,,0.00,VWS V14.01,2013-01-21 11:38:00,
2013-01-21 06:43:00,17.7,5.1,30.06,West,274,3.0,7.0,57,0.00,,,0.00,VWS V14.01,2013-01-21 11:43:00,
2013-01-21 06:48:00,17.7,5.4,30.06,SW,234,2.0,7.0,58,0.00,,,0.00,VWS V14.01,2013-01-21 11:48:00,
2013-01-21 06:53:00,17.7,5.1,30.06,WNW,286,2.0,7.0,57,0.00,,,0.00,VWS V14.01,2013-01-21 11:53:00,
2013-01-21 06:58:00,17.7,5.4,30.06,West,280,2.0,7.0,58,0.00,,,0.00,VWS V14.01,2013-01-21 11:58:00,
2013-01-21 07:03:00,17.6,5.3,30.06,WSW,256,1.0,7.0,58,0.00,,,0.00,VWS V14.01,2013-01-21 12:03:00,
2013-01-21 07:08:00,17.5,5.3,30.06,WSW,255,3.0,5.0,58,0.00,,,0.00,VWS V14.01,2013-01-21 12:08:00,
2013-01-21 07:13:00,17.5,5.6,30.06,WNW,301,1.0,5.0,59,0.00,,,0.00,VWS V14.01,2013-01-21 12:13:00,
2013-01-21 07:18:00,17.4,5.5,30.06,West,274,1.0,5.0,59,0.00,,,0.00,VWS V14.01,2013-01-21 12:18:00,
2013-01-21 07:23:00,17.4,5.5,30.06,West,272,1.0,5.0,59,0.00,,,0.00,VWS V14.01,2013-01-21 12:23:00,
2013-01-21 07:28:00,17.4,5.9,30.06,West,279,5.0,5.0,60,0.00,,,0.00,VWS V14.01,2013-01-21 12:28:00,
2013-01-21 07:33:00,17.4,5.9,30.06,WNW,286,3.0,5.0,60,0.00,,,0.00,VWS V14.01,2013-01-21 12:33:00,
2013-01-21 07:38:00,17.4,6.3,30.06,West,279,1.0,5.0,61,0.00,,,0.00,VWS V14.01,2013-01-21 12:38:00,
2013-01-21 07:43:00,17.5,6.0,30.06,West,270,6.0,6.0,60,0.00,,,0.00,VWS V14.01,2013-01-21 12:43:00,
2013-01-21 07:48:00,17.5,6.4,30.06,West,259,2.0,6.0,61,0.00,,,0.00,VWS V14.01,2013-01-21 12:48:00,
2013-01-21 07:53:00,17.7,6.9,30.06,West,259,0.0,6.0,62,0.00,,,0.00,VWS V14.01,2013-01-21 12:53:00,
2013-01-21 07:58:00,17.8,7.0,30.06,West,259,0.0,6.0,62,0.00,,,0.00,VWS V14.01,2013-01-21 12:58:00,
2013-01-21 08:03:00,18.0,7.2,30.07,West,259,1.0,6.0,62,0.00,,,0.00,VWS V14.01,2013-01-21 13:03:00,
2013-01-21 08:08:00,18.2,7.4,30.07,West,259,0.0,0.0,62,0.00,,,0.00,VWS V14.01,2013-01-21 13:08:00,
2013-01-21 08:13:00,18.5,7.7,30.07,West,259,1.0,2.0,62,0.00,,,0.00,VWS V14.01,2013-01-21 13:13:00,
2013-01-21 08:18:00,18.7,7.9,30.08,West,259,2.0,2.0,62,0.00,,,0.00,VWS V14.01,2013-01-21 13:18:00,
2013-01-21 08:23:00,18.9,7.7,30.07,WSW,257,0.0,3.0,61,0.00,,,0.00,VWS V14.01,2013-01-21 13:23:00,
2013-01-21 08:28:00,19.0,8.1,30.07,WSW,257,0.0,3.0,62,0.00,,,0.00,VWS V14.01,2013-01-21 13:28:00,
2013-01-21 08:33:00,19.3,8.1,30.08,WSW,257,0.0,3.0,61,0.00,,,0.00,VWS V14.01,2013-01-21 13:33:00,
2013-01-21 08:38:00,19.2,8.3,30.08,WSW,254,1.0,4.0,62,0.00,,,0.00,VWS V14.01,2013-01-21 13:38:00,
2013-01-21 08:43:00,19.2,8.0,30.08,SSW,213,2.0,4.0,61,0.00,,,0.00,VWS V14.01,2013-01-21 13:43:00,
2013-01-21 08:48:00,19.3,8.1,30.08,SW,214,0.0,4.0,61,0.00,,,0.00,VWS V14.01,2013-01-21 13:48:00,
2013-01-21 08:53:00,19.5,8.3,30.08,SW,215,1.0,4.0,61,0.00,,,0.00,VWS V14.01,2013-01-21 13:53:00,
2013-01-21 08:58:00,19.7,8.4,30.09,West,267,0.0,5.0,61,0.00,,,0.00,VWS V14.01,2013-01-21 13:58:00,
2013-01-21 09:03:00,20.0,8.4,30.09,West,262,2.0,5.0,60,0.00,,,0.00,VWS V14.01,2013-01-21 14:03:00,
2013-01-21 09:08:00,20.0,8.0,30.09,SW,234,0.0,3.0,59,0.00,,,0.00,VWS V14.01,2013-01-21 14:08:00,
2013-01-21 09:13:00,20.2,8.6,30.09,SW,234,1.0,3.0,60,0.00,,,0.00,VWS V14.01,2013-01-21 14:13:00,
2013-01-21 09:18:00,20.3,7.9,30.10,West,261,4.0,7.0,58,0.00,,,0.00,VWS V14.01,2013-01-21 14:18:00,
2013-01-21 09:23:00,20.3,7.9,30.10,West,262,2.0,7.0,58,0.00,,,0.00,VWS V14.01,2013-01-21 14:23:00,
2013-01-21 09:28:00,20.4,8.0,30.10,West,261,1.0,7.0,58,0.00,,,0.00,VWS V14.01,2013-01-21 14:28:00,
2013-01-21 09:33:00,20.7,8.3,30.10,WSW,254,3.0,7.0,58,0.00,,,0.00,VWS V14.01,2013-01-21 14:33:00,
2013-01-21 09:38:00,20.6,7.4,30.10,West,277,2.0,4.0,56,0.00,,,0.00,VWS V14.01,2013-01-21 14:38:00,
2013-01-21 09:43:00,20.7,7.5,30.10,West,272,5.0,5.0,56,0.00,,,0.00,VWS V14.01,2013-01-21 14:43:00,
2013-01-21 09:48:00,20.7,7.1,30.10,WSW,253,3.0,9.0,55,0.00,,,0.00,VWS V14.01,2013-01-21 14:48:00,
2013-01-21 09:53:00,20.6,7.0,30.09,WNW,288,1.0,9.0,55,0.00,,,0.00,VWS V14.01,2013-01-21 14:53:00,
2013-01-21 09:58:00,20.9,8.1,30.09,WNW,297,2.0,9.0,57,0.00,,,0.00,VWS V14.01,2013-01-21 14:58:00,
2013-01-21 10:03:00,21.0,7.4,30.09,West,262,4.0,9.0,55,0.00,,,0.00,VWS V14.01,2013-01-21 15:03:00,
2013-01-21 10:08:00,21.1,7.5,30.09,West,265,3.0,5.0,55,0.00,,,0.00,VWS V14.01,2013-01-21 15:08:00,
2013-01-21 10:13:00,21.1,7.5,30.09,WSW,238,4.0,8.0,55,0.00,,,0.00,VWS V14.01,2013-01-21 15:13:00,
2013-01-21 10:18:00,21.1,7.9,30.09,West,262,8.0,10.0,56,0.00,,,0.00,VWS V14.01,2013-01-21 15:18:00,
2013-01-21 10:23:00,21.3,7.3,30.08,WSW,246,5.0,10.0,54,0.00,,,0.00,VWS V14.01,2013-01-21 15:23:00,
2013-01-21 10:28:00,21.4,7.8,30.08,West,267,4.0,10.0,55,0.00,,,0.00,VWS V14.01,2013-01-21 15:28:00,
2013-01-21 10:33:00,21.4,7.3,30.08,WSW,249,5.0,10.0,54,0.00,,,0.00,VWS V14.01,2013-01-21 15:33:00,
2013-01-21 10:38:00,21.7,7.2,30.08,West,281,1.0,7.0,53,0.00,,,0.00,VWS V14.01,2013-01-21 15:38:00,
2013-01-21 10:43:00,22.0,7.5,30.08,West,274,0.0,9.0,53,0.00,,,0.00,VWS V14.01,2013-01-21 15:43:00,
2013-01-21 10:48:00,22.1,7.6,30.08,WSW,252,4.0,10.0,53,0.00,,,0.00,VWS V14.01,2013-01-21 15:48:00,
2013-01-21 10:53:00,21.7,7.2,30.07,West,272,6.0,10.0,53,0.00,,,0.00,VWS V14.01,2013-01-21 15:53:00,
2013-01-21 10:58:00,21.8,7.3,30.07,WSW,250,2.0,10.0,53,0.00,,,0.00,VWS V14.01,2013-01-21 15:58:00,
2013-01-21 11:03:00,22.2,7.3,30.07,SSW,211,1.0,10.0,52,0.00,,,0.00,VWS V14.01,2013-01-21 16:03:00,
2013-01-21 11:08:00,22.6,8.1,30.06,West,265,4.0,4.0,53,0.00,,,0.00,VWS V14.01,2013-01-21 16:08:00,
2013-01-21 11:13:00,22.7,7.3,30.06,WSW,243,3.0,7.0,51,0.00,,,0.00,VWS V14.01,2013-01-21 16:13:00,
2013-01-21 11:18:00,22.6,7.2,30.06,SW,228,4.0,8.0,51,0.00,,,0.00,VWS V14.01,2013-01-21 16:18:00,
2013-01-21 11:23:00,22.7,7.3,30.05,WNW,299,3.0,8.0,51,0.00,,,0.00,VWS V14.01,2013-01-21 16:23:00,
2013-01-21 11:28:00,22.7,6.9,30.05,West,269,6.0,8.0,50,0.00,,,0.00,VWS V14.01,2013-01-21 16:28:00,
2013-01-21 11:33:00,22.7,6.4,30.04,WSW,251,3.0,8.0,49,0.00,,,0.00,VWS V14.01,2013-01-21 16:33:00,
2013-01-21 11:38:00,22.7,6.9,30.04,NW,324,2.0,5.0,50,0.00,,,0.00,VWS V14.01,2013-01-21 16:38:00,
2013-01-21 11:43:00,23.0,7.1,30.04,West,279,4.0,5.0,50,0.00,,,0.00,VWS V14.01,2013-01-21 16:43:00,
2013-01-21 11:48:00,23.3,7.0,30.04,WSW,258,7.0,7.0,49,0.00,,,0.00,VWS V14.01,2013-01-21 16:48:00,
2013-01-21 11:53:00,23.2,6.9,30.04,West,261,5.0,8.0,49,0.00,,,0.00,VWS V14.01,2013-01-21 16:53:00,
2013-01-21 11:58:00,23.4,7.1,30.03,West,265,5.0,8.0,49,0.00,,,0.00,VWS V14.01,2013-01-21 16:58:00,
2013-01-21 12:03:00,23.4,7.1,30.02,West,271,2.0,9.0,49,0.00,,,0.00,VWS V14.01,2013-01-21 17:03:00,
2013-01-21 12:08:00,23.8,7.0,30.02,NNW,331,0.0,3.0,48,0.00,,,0.00,VWS V14.01,2013-01-21 17:08:00,
2013-01-21 12:13:00,24.2,7.3,30.02,West,260,3.0,6.0,48,0.00,,,0.00,VWS V14.01,2013-01-21 17:13:00,
2013-01-21 12:18:00,24.5,6.7,30.01,WNW,290,4.0,9.0,46,0.00,,,0.00,VWS V14.01,2013-01-21 17:18:00,
2013-01-21 12:23:00,24.4,7.1,30.01,SSW,193,4.0,9.0,47,0.00,,,0.00,VWS V14.01,2013-01-21 17:23:00,
2013-01-21 12:28:00,24.5,6.7,30.01,West,266,5.0,12.0,46,0.00,,,0.00,VWS V14.01,2013-01-21 17:28:00,
2013-01-21 12:33:00,25.0,7.6,30.01,WNW,298,6.0,12.0,47,0.00,,,0.00,VWS V14.01,2013-01-21 17:33:00,
2013-01-21 12:38:00,24.7,7.3,30.01,SW,236,4.0,7.0,47,0.00,,,0.00,VWS V14.01,2013-01-21 17:38:00,
2013-01-21 12:43:00,24.7,6.9,30.00,WSW,252,2.0,8.0,46,0.00,,,0.00,VWS V14.01,2013-01-21 17:43:00,
2013-01-21 12:48:00,24.4,7.5,30.00,SSW,200,1.0,9.0,48,0.00,,,0.00,VWS V14.01,2013-01-21 17:48:00,
2013-01-21 12:53:00,24.6,7.3,30.00,West,263,7.0,9.0,47,0.00,,,0.00,VWS V14.01,2013-01-21 17:53:00,
2013-01-21 12:58:00,24.5,6.7,30.00,West,273,4.0,10.0,46,0.00,,,0.00,VWS V14.01,2013-01-21 17:58:00,
2013-01-21 13:03:00,24.5,7.2,30.00,WNW,288,3.0,10.0,47,0.00,,,0.00,VWS V14.01,2013-01-21 18:03:00,
2013-01-21 13:08:00,24.5,7.6,30.00,NW,325,4.0,6.0,48,0.00,,,0.00,VWS V14.01,2013-01-21 18:08:00,
2013-01-21 13:13:00,24.4,6.6,30.00,WNW,284,4.0,9.0,46,0.00,,,0.00,VWS V14.01,2013-01-21 18:13:00,
2013-01-21 13:18:00,24.4,7.5,29.99,NW,309,0.0,9.0,48,0.00,,,0.00,VWS V14.01,2013-01-21 18:18:00,
2013-01-21 13:23:00,24.5,7.6,29.99,WNW,284,4.0,9.0,48,0.00,,,0.00,VWS V14.01,2013-01-21 18:23:00,
2013-01-21 13:28:00,24.6,7.7,29.99,NW,323,2.0,9.0,48,0.00,,,0.00,VWS V14.01,2013-01-21 18:28:00,
2013-01-21 13:33:00,24.7,7.8,29.99,NW,306,1.0,9.0,48,0.00,,,0.00,VWS V14.01,2013-01-21 18:33:00,
2013-01-21 13:38:00,24.7,7.8,29.99,SSW,211,2.0,3.0,48,0.00,,,0.00,VWS V14.01,2013-01-21 18:38:00,
2013-01-21 13:43:00,24.9,8.0,29.99,WSW,257,0.0,6.0,48,0.00,,,0.00,VWS V14.01,2013-01-21 18:43:00,
2013-01-21 13:48:00,24.9,7.1,29.99,West,264,3.0,6.0,46,0.00,,,0.00,VWS V14.01,2013-01-21 18:48:00,
2013-01-21 13:53:00,24.9,7.5,29.99,WNW,283,2.0,9.0,47,0.00,,,0.00,VWS V14.01,2013-01-21 18:53:00,
2013-01-21 13:58:00,24.9,8.5,29.99,WNW,284,1.0,10.0,49,0.00,,,0.00,VWS V14.01,2013-01-21 18:58:00,
2013-01-21 14:03:00,24.9,7.5,29.98,West,271,1.0,10.0,47,0.00,,,0.00,VWS V14.01,2013-01-21 19:03:00,
2013-01-21 14:08:00,24.5,7.2,29.98,South,179,1.0,5.0,47,0.00,,,0.00,VWS V14.01,2013-01-21 19:08:00,
2013-01-21 14:13:00,24.9,8.0,29.98,West,265,2.0,5.0,48,0.00,,,0.00,VWS V14.01,2013-01-21 19:13:00,
2013-01-21 14:18:00,25.0,8.6,29.98,WSW,252,7.0,7.0,49,0.00,,,0.00,VWS V14.01,2013-01-21 19:18:00,
2013-01-21 14:23:00,24.9,7.5,29.98,WSW,257,0.0,7.0,47,0.00,,,0.00,VWS V14.01,2013-01-21 19:23:00,
2013-01-21 14:28:00,24.7,6.9,29.98,West,263,0.0,7.0,46,0.00,,,0.00,VWS V14.01,2013-01-21 19:28:00,
2013-01-21 14:33:00,24.7,7.3,29.98,West,262,6.0,7.0,47,0.00,,,0.00,VWS V14.01,2013-01-21 19:33:00,
2013-01-21 14:38:00,24.7,7.8,29.98,West,264,0.0,5.0,48,0.00,,,0.00,VWS V14.01,2013-01-21 19:38:00,
2013-01-21 14:43:00,24.8,7.4,29.98,West,272,3.0,5.0,47,0.00,,,0.00,VWS V14.01,2013-01-21 19:43:00,
2013-01-21 14:48:00,24.7,6.9,29.97,South,175,2.0,5.0,46,0.00,,,0.00,VWS V14.01,2013-01-21 19:48:00,
2013-01-21 14:53:00,24.5,7.2,29.96,SSW,199,0.0,5.0,47,0.00,,,0.00,VWS V14.01,2013-01-21 19:53:00,
2013-01-21 14:58:00,24.6,7.7,29.97,South,184,0.0,5.0,48,0.00,,,0.00,VWS V14.01,2013-01-21 19:58:00,
2013-01-21 15:03:00,24.8,7.9,29.97,SSW,192,0.0,5.0,48,0.00,,,0.00,VWS V14.01,2013-01-21 20:03:00,
2013-01-21 15:08:00,24.7,8.7,29.97,SW,236,2.0,4.0,50,0.00,,,0.00,VWS V14.01,2013-01-21 20:08:00,
2013-01-21 15:13:00,24.4,9.3,29.97,West,276,3.0,6.0,52,0.00,,,0.00,VWS V14.01,2013-01-21 20:13:00,
2013-01-21 15:18:00,24.3,8.8,29.97,South,186,0.0,6.0,51,0.00,,,0.00,VWS V14.01,2013-01-21 20:18:00,
2013-01-21 15:23:00,24.3,9.2,29.97,SSE,163,2.0,6.0,52,0.00,,,0.00,VWS V14.01,2013-01-21 20:23:00,
2013-01-21 15:28:00,24.1,9.0,29.97,South,178,3.0,6.0,52,0.00,,,0.00,VWS V14.01,2013-01-21 20:28:00,
2013-01-21 15:33:00,24.1,9.5,29.97,South,189,2.0,6.0,53,0.00,,,0.00,VWS V14.01,2013-01-21 20:33:00,
2013-01-21 15:38:00,24.1,10.3,29.97,SSW,198,3.0,6.0,55,0.00,,,0.00,VWS V14.01,2013-01-21 20:38:00,
2013-01-21 15:43:00,23.9,10.5,29.97,SSW,204,3.0,6.0,56,0.00,,,0.00,VWS V14.01,2013-01-21 20:43:00,
2013-01-21 15:48:00,23.8,11.6,29.96,SSW,208,0.0,6.0,59,0.00,,,0.00,VWS V14.01,2013-01-21 20:48:00,
2013-01-21 15:53:00,23.6,11.8,29.96,South,191,1.0,6.0,60,0.00,,,0.00,VWS V14.01,2013-01-21 20:53:00,
2013-01-21 15:58:00,23.4,11.9,29.96,South,169,3.0,6.0,61,0.00,,,0.00,VWS V14.01,2013-01-21 20:58:00,
2013-01-21 16:03:00,23.1,12.0,29.95,SSW,192,1.0,9.0,62,0.00,,,0.00,VWS V14.01,2013-01-21 21:03:00,
2013-01-21 16:08:00,23.0,12.6,29.95,SE,128,1.0,4.0,64,0.00,,,0.00,VWS V14.01,2013-01-21 21:08:00,
2013-01-21 16:13:00,22.9,12.9,29.95,SSW,210,2.0,5.0,65,0.00,,,0.00,VWS V14.01,2013-01-21 21:13:00,
2013-01-21 16:18:00,22.7,13.4,29.96,SSW,198,3.0,5.0,67,0.00,,,0.00,VWS V14.01,2013-01-21 21:18:00,
2013-01-21 16:23:00,22.4,13.8,29.95,SSW,200,4.0,5.0,69,0.00,,,0.00,VWS V14.01,2013-01-21 21:23:00,
2013-01-21 16:28:00,22.1,14.1,29.95,SSW,202,3.0,5.0,71,0.00,,,0.00,VWS V14.01,2013-01-21 21:28:00,
2013-01-21 16:33:00,22.0,14.4,29.95,SSW,202,1.0,5.0,72,0.00,,,0.00,VWS V14.01,2013-01-21 21:33:00,
2013-01-21 16:38:00,21.9,14.6,29.95,WSW,255,0.0,2.0,73,0.00,,,0.00,VWS V14.01,2013-01-21 21:38:00,
2013-01-21 16:43:00,21.8,14.8,29.95,SSW,212,0.0,3.0,74,0.00,,,0.00,VWS V14.01,2013-01-21 21:43:00,
2013-01-21 16:48:00,21.6,15.2,29.95,SSW,212,0.0,3.0,76,0.00,,,0.00,VWS V14.01,2013-01-21 21:48:00,
2013-01-21 16:53:00,21.6,15.5,29.95,SSW,212,0.0,3.0,77,0.00,,,0.00,VWS V14.01,2013-01-21 21:53:00,
2013-01-21 16:58:00,21.5,15.7,29.95,SSW,212,0.0,3.0,78,0.00,,,0.00,VWS V14.01,2013-01-21 21:58:00,
2013-01-21 17:03:00,21.4,15.9,29.95,SSW,212,0.0,3.0,79,0.00,,,0.00,VWS V14.01,2013-01-21 22:03:00,
2013-01-21 17:08:00,21.4,15.9,29.95,SSW,212,0.0,0.0,79,0.00,,,0.00,VWS V14.01,2013-01-21 22:08:00,
2013-01-21 17:13:00,21.3,16.1,29.95,SSW,212,0.0,0.0,80,0.00,,,0.00,VWS V14.01,2013-01-21 22:13:00,
2013-01-21 17:18:00,21.3,16.1,29.95,SSW,212,0.0,0.0,80,0.00,,,0.00,VWS V14.01,2013-01-21 22:18:00,
2013-01-21 17:23:00,21.2,16.0,29.95,SSW,212,0.0,0.0,80,0.00,,,0.00,VWS V14.01,2013-01-21 22:23:00,
2013-01-21 17:28:00,21.1,16.2,29.95,SSW,212,0.0,1.0,81,0.00,,,0.00,VWS V14.01,2013-01-21 22:28:00,
2013-01-21 17:33:00,21.0,16.1,29.95,SSW,212,0.0,1.0,81,0.00,,,0.00,VWS V14.01,2013-01-21 22:33:00,
2013-01-21 17:38:00,20.9,16.3,29.95,SSW,212,0.0,0.0,82,0.00,,,0.00,VWS V14.01,2013-01-21 22:38:00,
2013-01-21 17:43:00,20.9,16.3,29.94,SSW,212,0.0,0.0,82,0.00,,,0.00,VWS V14.01,2013-01-21 22:43:00,
2013-01-21 17:48:00,20.8,16.2,29.94,SSW,212,0.0,0.0,82,0.00,,,0.00,VWS V14.01,2013-01-21 22:48:00,
2013-01-21 17:53:00,20.8,16.5,29.94,SSW,212,0.0,0.0,83,0.00,,,0.00,VWS V14.01,2013-01-21 22:53:00,
2013-01-21 17:58:00,20.7,16.4,29.94,SSW,212,0.0,0.0,83,0.00,,,0.00,VWS V14.01,2013-01-21 22:58:00,
2013-01-21 18:03:00,20.7,16.4,29.94,SSW,212,0.0,0.0,83,0.00,,,0.00,VWS V14.01,2013-01-21 23:03:00,
2013-01-21 18:08:00,20.7,16.6,29.94,SSW,212,0.0,0.0,84,0.00,,,0.00,VWS V14.01,2013-01-21 23:08:00,
2013-01-21 18:13:00,20.6,16.8,29.94,SSW,212,0.0,0.0,85,0.00,,,0.00,VWS V14.01,2013-01-21 23:13:00,
2013-01-21 18:18:00,20.6,16.8,29.94,SSW,212,0.0,0.0,85,0.00,,,0.00,VWS V14.01,2013-01-21 23:18:00,
2013-01-21 18:23:00,20.5,16.7,29.94,SSW,212,0.0,0.0,85,0.00,,,0.00,VWS V14.01,2013-01-21 23:23:00,
2013-01-21 18:28:00,20.6,16.8,29.94,SSW,212,0.0,0.0,85,0.00,,,0.00,VWS V14.01,2013-01-21 23:28:00,
2013-01-21 18:33:00,20.5,16.7,29.94,SSW,212,0.0,0.0,85,0.00,,,0.00,VWS V14.01,2013-01-21 23:33:00,
2013-01-21 18:38:00,20.5,16.7,29.94,SSW,212,0.0,0.0,85,0.00,,,0.00,VWS V14.01,2013-01-21 23:38:00,
2013-01-21 18:43:00,20.5,16.7,29.94,SSW,212,0.0,0.0,85,0.00,,,0.00,VWS V14.01,2013-01-21 23:43:00,
2013-01-21 18:48:00,20.5,16.7,29.94,SSW,212,0.0,0.0,85,0.00,,,0.00,VWS V14.01,2013-01-21 23:48:00,
2013-01-21 18:53:00,20.6,16.8,29.94,SSW,212,0.0,0.0,85,0.00,,,0.00,VWS V14.01,2013-01-21 23:53:00,
2013-01-21 18:58:00,20.6,17.1,29.94,SSW,212,0.0,0.0,86,0.00,,,0.00,VWS V14.01,2013-01-21 23:58:00,
2013-01-21 19:03:00,20.6,17.1,29.93,SSW,212,0.0,0.0,86,0.00,,,0.00,VWS V14.01,2013-01-22 00:03:00,
2013-01-21 19:08:00,20.6,17.4,29.93,SSW,212,0.0,0.0,87,0.00,,,0.00,VWS V14.01,2013-01-22 00:08:00,
2013-01-21 19:13:00,20.6,17.4,29.93,SSW,212,1.0,2.0,87,0.00,,,0.00,VWS V14.01,2013-01-22 00:13:00,
2013-01-21 19:18:00,20.6,17.4,29.93,SSW,212,1.0,2.0,87,0.00,,,0.00,VWS V14.01,2013-01-22 00:18:00,
2013-01-21 19:23:00,20.5,17.2,29.93,SSW,212,0.0,2.0,87,0.00,,,0.00,VWS V14.01,2013-01-22 00:23:00,
2013-01-21 19:28:00,20.5,17.5,29.92,SSW,212,0.0,2.0,88,0.00,,,0.00,VWS V14.01,2013-01-22 00:28:00,
2013-01-21 19:33:00,20.5,17.2,29.92,SSW,212,0.0,2.0,87,0.00,,,0.00,VWS V14.01,2013-01-22 00:33:00,
2013-01-21 19:38:00,20.5,17.5,29.92,SSW,212,0.0,0.0,88,0.00,,,0.00,VWS V14.01,2013-01-22 00:38:00,
2013-01-21 19:43:00,20.5,17.5,29.92,SSW,212,0.0,0.0,88,0.00,,,0.00,VWS V14.01,2013-01-22 00:43:00,
2013-01-21 19:48:00,20.5,17.5,29.92,SSW,212,0.0,0.0,88,0.00,,,0.00,VWS V14.01,2013-01-22 00:48:00,
2013-01-21 19:53:00,20.5,17.5,29.91,SSW,212,0.0,0.0,88,0.00,,,0.00,VWS V14.01,2013-01-22 00:53:00,
2013-01-21 19:58:00,20.4,17.4,29.91,SSW,212,0.0,0.0,88,0.00,,,0.00,VWS V14.01,2013-01-22 00:58:00,
2013-01-21 20:03:00,20.4,17.4,29.92,SSW,212,0.0,0.0,88,0.00,,,0.00,VWS V14.01,2013-01-22 01:03:00,
2013-01-21 20:08:00,20.5,17.5,29.92,SSW,212,0.0,0.0,88,0.00,,,0.00,VWS V14.01,2013-01-22 01:08:00,
2013-01-21 20:13:00,20.5,17.5,29.92,SSW,212,0.0,0.0,88,0.00,,,0.00,VWS V14.01,2013-01-22 01:13:00,
2013-01-21 20:18:00,20.4,17.7,29.92,SSW,212,0.0,1.0,89,0.00,,,0.00,VWS V14.01,2013-01-22 01:18:00,
2013-01-21 20:23:00,20.4,17.7,29.92,SSW,212,0.0,1.0,89,0.00,,,0.00,VWS V14.01,2013-01-22 01:23:00,
2013-01-21 20:28:00,20.4,17.7,29.92,SSW,212,0.0,1.0,89,0.00,,,0.00,VWS V14.01,2013-01-22 01:28:00,
2013-01-21 20:33:00,20.4,17.7,29.92,SSW,212,0.0,1.0,89,0.00,,,0.00,VWS V14.01,2013-01-22 01:33:00,
2013-01-21 20:38:00,20.4,17.7,29.92,SSW,212,0.0,1.0,89,0.00,,,0.00,VWS V14.01,2013-01-22 01:38:00,
2013-01-21 20:43:00,20.5,17.8,29.92,SSW,212,0.0,1.0,89,0.00,,,0.00,VWS V14.01,2013-01-22 01:43:00,
2013-01-21 20:48:00,20.5,17.8,29.91,SSW,212,0.0,1.0,89,0.00,,,0.00,VWS V14.01,2013-01-22 01:48:00,
2013-01-21 20:53:00,20.6,17.9,29.91,SSW,212,0.0,1.0,89,0.00,,,0.00,VWS V14.01,2013-01-22 01:53:00,
2013-01-21 20:58:00,20.6,17.9,29.91,SSW,212,0.0,1.0,89,0.00,,,0.00,VWS V14.01,2013-01-22 01:58:00,
2013-01-21 21:03:00,20.6,17.9,29.90,SSW,212,0.0,2.0,89,0.00,,,0.00,VWS V14.01,2013-01-22 02:03:00,
2013-01-21 21:08:00,20.6,17.9,29.89,NNW,342,0.0,2.0,89,0.00,,,0.00,VWS V14.01,2013-01-22 02:08:00,
2013-01-21 21:13:00,20.6,17.9,29.89,NNW,342,0.0,3.0,89,0.00,,,0.00,VWS V14.01,2013-01-22 02:13:00,
2013-01-21 21:18:00,20.7,18.0,29.88,NNW,342,0.0,3.0,89,0.00,,,0.00,VWS V14.01,2013-01-22 02:18:00,
2013-01-21 21:23:00,20.6,17.9,29.88,NNW,342,0.0,3.0,89,0.00,,,0.00,VWS V14.01,2013-01-22 02:23:00,
2013-01-21 21:28:00,20.6,17.9,29.89,ENE,65,0.0,3.0,89,0.00,,,0.00,VWS V14.01,2013-01-22 02:28:00,
2013-01-21 21:33:00,20.6,17.6,29.90,ENE,65,0.0,3.0,88,0.00,,,0.00,VWS V14.01,2013-01-22 02:33:00,
2013-01-21 21:38:00,20.5,17.5,29.89,ENE,65,0.0,0.0,88,0.00,,,0.00,VWS V14.01,2013-01-22 02:38:00,
2013-01-21 21:43:00,20.4,17.4,29.89,ENE,65,0.0,0.0,88,0.00,,,0.00,VWS V14.01,2013-01-22 02:43:00,
2013-01-21 21:48:00,20.4,17.7,29.89,ENE,65,0.0,0.0,89,0.00,,,0.00,VWS V14.01,2013-01-22 02:48:00,
2013-01-21 21:53:00,20.3,17.6,29.88,ENE,65,0.0,0.0,89,0.00,,,0.00,VWS V14.01,2013-01-22 02:53:00,
2013-01-21 21:58:00,20.3,17.6,29.88,ENE,65,0.0,1.0,89,0.00,,,0.00,VWS V14.01,2013-01-22 02:58:00,
2013-01-21 22:03:00,20.3,17.8,29.88,ENE,65,0.0,1.0,90,0.00,,,0.00,VWS V14.01,2013-01-22 03:03:00,
2013-01-21 22:08:00,20.3,17.8,29.87,ENE,65,0.0,0.0,90,0.00,,,0.00,VWS V14.01,2013-01-22 03:08:00,
2013-01-21 22:13:00,20.3,17.8,29.86,ENE,65,1.0,1.0,90,0.00,,,0.00,VWS V14.01,2013-01-22 03:13:00,
2013-01-21 22:18:00,20.3,17.8,29.86,ENE,65,0.0,2.0,90,0.00,,,0.00,VWS V14.01,2013-01-22 03:18:00,
2013-01-21 22:23:00,20.4,17.9,29.86,ENE,65,0.0,2.0,90,0.00,,,0.00,VWS V14.01,2013-01-22 03:23:00,
2013-01-21 22:28:00,20.4,17.9,29.85,ENE,65,1.0,2.0,90,0.00,,,0.00,VWS V14.01,2013-01-22 03:28:00,
2013-01-21 22:33:00,20.5,18.0,29.86,ESE,106,2.0,3.0,90,0.00,,,0.00,VWS V14.01,2013-01-22 03:33:00,
2013-01-21 22:38:00,20.5,18.0,29.85,ESE,114,0.0,3.0,90,0.00,,,0.00,VWS V14.01,2013-01-22 03:38:00,
2013-01-21 22:43:00,20.5,18.0,29.85,ESE,114,0.0,3.0,90,0.00,,,0.00,VWS V14.01,2013-01-22 03:43:00,
2013-01-21 22:48:00,20.5,18.0,29.85,ESE,114,1.0,3.0,90,0.00,,,0.00,VWS V14.01,2013-01-22 03:48:00,
2013-01-21 22:53:00,20.5,18.0,29.85,ESE,107,2.0,3.0,90,0.00,,,0.00,VWS V14.01,2013-01-22 03:53:00,
2013-01-21 22:58:00,20.4,17.9,29.85,ESE,107,0.0,3.0,90,0.00,,,0.00,VWS V14.01,2013-01-22 03:58:00,
2013-01-21 23:03:00,20.4,17.7,29.85,ESE,107,1.0,3.0,89,0.00,,,0.00,VWS V14.01,2013-01-22 04:03:00,
2013-01-21 23:08:00,20.4,17.7,29.84,ESE,107,0.0,1.0,89,0.00,,,0.00,VWS V14.01,2013-01-22 04:08:00,
2013-01-21 23:13:00,20.4,17.7,29.84,ESE,107,0.0,1.0,89,0.00,,,0.00,VWS V14.01,2013-01-22 04:13:00,
2013-01-21 23:17:00,20.3,17.6,29.82,ESE,107,1.0,2.0,89,0.00,,,0.00,VWS V14.01,2013-01-22 04:17:00,
2013-01-21 23:23:00,20.3,17.6,29.82,ESE,107,0.0,2.0,89,0.00,,,0.00,VWS V14.01,2013-01-22 04:23:00,
2013-01-21 23:28:00,20.3,17.6,29.82,ESE,107,0.0,2.0,89,0.00,,,0.00,VWS V14.01,2013-01-22 04:28:00,
2013-01-21 23:33:00,20.3,17.6,29.82,ESE,107,0.0,2.0,89,0.00,,,0.00,VWS V14.01,2013-01-22 04:33:00,
2013-01-21 23:37:00,20.2,17.5,29.82,ESE,107,1.0,1.0,89,0.00,,,0.00,VWS V14.01,2013-01-22 04:37:00,
2013-01-21 23:42:00,20.2,17.7,29.82,ESE,107,0.0,1.0,90,0.00,,,0.00,VWS V14.01,2013-01-22 04:42:00,
2013-01-21 23:47:00,20.2,17.5,29.82,ESE,107,1.0,2.0,89,0.00,,,0.00,VWS V14.01,2013-01-22 04:47:00,
2013-01-21 23:52:00,20.2,17.5,29.82,ESE,107,0.0,2.0,89,0.00,,,0.00,VWS V14.01,2013-01-22 04:52:00,
2013-01-21 23:57:00,20.2,17.5,29.81,SE,129,0.0,2.0,89,0.00,,,0.00,VWS V14.01,2013-01-22 04:57:00,